Dessau, Texas
Current Conditions -  °F | °C
As of 2:55 PM on Tuesday 21 Oct 2014 (Local Time) from KEDC Reporting Station
Clear Clear  
Wind Chill: 26°   Ceiling: Unl
Heat Index: 26°   Visibility: 10mi
Dew Point: 10°   Wind: 10mph
Humidity: 36%   Direction: 100°E
Pressure: 30.02"   Gusts: NA
Location:  30.3795°N, 97.676°W
Report Text: KEDC 211955Z AUTO 10009KT 10SM CLR 26/10 A3002 RMK AO2
Loading
Personal Weather Stations






























Interactive Weather Map
Tropical Storm Tracking
New forecast layout! Learn more

10-Day Weather Forecast

Advertisements
Track Severe Weather on mobile